Time;durP1;ratioP1;P1;durP2;ratioP2;P2;SDS_P1;SDS_P2;PMS_P1;PMS_P2;Temp;Humidity;BMP_temperature;BMP_pressure;BME280_temperature;BME280_humidity;BME280_pressure;Samples;Min_cycle;Max_cycle;Signal;HPM_P1;HPM_P2
2023/12/21 00:01:21;;;;;;;34.13;30.83;;;;;;;21.29;30.28;94452.13;6148040;28;109271;-62
2023/12/21 00:04:25;;;;;;;33.37;30.07;;;;;;;21.27;29.78;94455.09;6156241;28;109212;-62
2023/12/21 00:07:30;;;;;;;32.60;29.60;;;;;;;21.29;30.25;94452.91;6146841;28;109162;-61
2023/12/21 00:10:33;;;;;;;32.80;29.50;;;;;;;21.29;30.08;94455.56;6148875;28;109004;-62
2023/12/21 00:13:36;;;;;;;31.00;28.00;;;;;;;21.29;30.08;94458.22;6154477;28;109369;-60
2023/12/21 00:16:39;;;;;;;31.20;28.10;;;;;;;21.28;30.03;94462.00;6161988;28;109961;-63
2023/12/21 00:19:42;;;;;;;33.00;29.83;;;;;;;21.30;30.16;94459.00;6154561;28;110195;-61
2023/12/21 00:22:47;;;;;;;31.40;28.30;;;;;;;21.29;30.00;94462.78;6146675;28;110788;-62
2023/12/21 00:25:50;;;;;;;32.63;29.30;;;;;;;21.29;29.96;94470.75;6152752;28;110501;-62
2023/12/21 00:28:53;;;;;;;32.33;29.13;;;;;;;21.28;29.82;94471.84;6157410;28;110087;-62
2023/12/21 00:31:56;;;;;;;32.17;29.07;;;;;;;21.27;30.04;94480.94;6152773;28;110071;-62
2023/12/21 00:34:59;;;;;;;32.23;29.10;;;;;;;21.31;29.77;94482.66;6159058;28;109107;-61
2023/12/21 00:38:04;;;;;;;31.57;28.50;;;;;;;21.32;29.69;94486.88;6158863;28;108993;-62
2023/12/21 00:41:07;;;;;;;30.20;27.37;;;;;;;21.33;30.04;94485.78;6147215;28;109288;-62
2023/12/21 00:44:10;;;;;;;30.43;27.57;;;;;;;21.33;30.09;94492.97;6139404;28;109197;-62
2023/12/21 00:47:13;;;;;;;30.50;27.67;;;;;;;21.31;30.01;94503.16;6155555;28;110098;-62
2023/12/21 00:50:16;;;;;;;30.70;27.70;;;;;;;21.31;29.77;94508.47;6160386;28;112152;-62
2023/12/21 00:53:21;;;;;;;29.70;26.90;;;;;;;21.33;29.84;94514.25;6156840;28;110210;-62
2023/12/21 00:56:24;;;;;;;29.63;26.83;;;;;;;21.33;30.08;94506.28;6150178;28;108869;-62
2023/12/21 00:59:27;;;;;;;29.93;27.07;;;;;;;21.31;30.07;94498.63;6155586;28;109232;-62
2023/12/21 01:02:30;;;;;;;29.20;26.37;;;;;;;21.31;29.76;94498.63;6152924;28;110070;-62
2023/12/21 01:05:34;;;;;;;29.13;26.43;;;;;;;21.32;29.67;94502.84;6148409;28;110069;-60
2023/12/21 01:08:38;;;;;;;29.40;26.67;;;;;;;21.31;29.63;94501.28;6159211;28;110625;-61
2023/12/21 01:11:41;;;;;;;27.70;25.20;;;;;;;21.30;29.82;94505.03;6145963;28;109351;-58
2023/12/21 01:14:44;;;;;;;28.80;26.20;;;;;;;21.30;29.72;94502.38;6158557;28;109198;-58
2023/12/21 01:17:48;;;;;;;28.50;25.70;;;;;;;21.29;29.89;94500.81;6129189;28;109613;-58
2023/12/21 01:20:52;;;;;;;27.60;24.90;;;;;;;21.28;30.09;94488.59;6159542;28;108990;-58
2023/12/21 01:23:56;;;;;;;28.10;25.50;;;;;;;21.27;29.96;94496.91;6153687;28;108669;-58
2023/12/21 01:26:59;;;;;;;26.13;23.83;;;;;;;21.25;30.20;94483.91;6146312;28;109403;-59
2023/12/21 01:30:02;;;;;;;27.17;24.77;;;;;;;21.26;30.05;94498.78;6145807;28;109188;-58
2023/12/21 01:33:06;;;;;;;27.43;24.93;;;;;;;21.24;29.80;94490.34;6158758;28;110003;-58
2023/12/21 01:36:09;;;;;;;25.27;22.97;;;;;;;21.24;30.30;94482.34;6151270;28;110903;-58
2023/12/21 01:39:14;;;;;;;26.60;24.10;;;;;;;21.23;30.38;94483.44;6156972;28;110098;-60
2023/12/21 01:42:17;;;;;;;26.90;24.50;;;;;;;21.17;30.03;94472.19;6154757;28;110132;-59
2023/12/21 01:45:20;;;;;;;24.90;22.63;;;;;;;21.21;30.21;94490.97;6150173;28;108985;-58
2023/12/21 01:48:23;;;;;;;26.90;24.43;;;;;;;21.24;29.98;94487.66;6142567;28;109602;-58
2023/12/21 01:51:27;;;;;;;24.97;22.60;;;;;;;21.21;29.76;94489.09;6148243;28;109106;-59
2023/12/21 01:54:32;;;;;;;25.50;23.30;;;;;;;21.26;29.61;94482.03;6156936;28;112109;-65
2023/12/21 01:57:35;;;;;;;24.60;22.40;;;;;;;21.25;29.63;94467.16;6160865;28;110165;-59
2023/12/21 02:00:38;;;;;;;23.60;21.37;;;;;;;21.24;29.83;94477.03;6158900;28;109277;-59
2023/12/21 02:03:42;;;;;;;25.03;22.83;;;;;;;21.21;29.85;94473.13;6142083;28;110202;-58
2023/12/21 02:06:45;;;;;;;25.70;23.37;;;;;;;21.23;29.74;94464.81;6148553;28;109439;-58
2023/12/21 02:09:50;;;;;;;24.23;21.93;;;;;;;21.23;30.16;94470.13;6144163;28;109671;-58
2023/12/21 02:12:53;;;;;;;25.87;23.57;;;;;;;21.24;30.02;94462.94;6159371;28;109287;-58
2023/12/21 02:16:03;;;;;;;23.70;21.50;;;;;;;21.23;29.62;94464.81;6148429;28;110534;-59
2023/12/21 02:19:08;;;;;;;23.97;21.63;;;;;;;21.24;29.75;94479.69;6159832;28;110058;-58
2023/12/21 02:22:14;;;;;;;23.97;21.87;;;;;;;21.23;29.76;94475.47;6140256;28;109186;-58
2023/12/21 02:25:19;;;;;;;24.33;22.03;;;;;;;21.24;29.62;94473.59;6145741;28;109225;-58
2023/12/21 02:28:22;;;;;;;24.00;21.90;;;;;;;21.16;29.75;94470.59;6156834;28;109987;-58
2023/12/21 02:31:26;;;;;;;25.03;22.73;;;;;;;21.24;29.86;94481.56;6142134;28;109181;-58
2023/12/21 02:34:29;;;;;;;25.50;23.20;;;;;;;21.23;29.59;94469.34;6148041;28;110578;-59
2023/12/21 02:37:32;;;;;;;23.03;21.00;;;;;;;21.23;29.87;94469.34;6147876;28;109179;-58
2023/12/21 02:40:36;;;;;;;23.97;21.77;;;;;;;21.22;29.85;94479.22;6157601;28;109063;-59
2023/12/21 02:43:39;;;;;;;23.37;21.30;;;;;;;21.23;29.59;94485.31;6157069;28;109056;-59
2023/12/21 02:46:42;;;;;;;23.00;21.00;;;;;;;21.24;29.72;94481.56;6140830;28;108959;-59
2023/12/21 02:49:45;;;;;;;23.27;21.07;;;;;;;21.23;29.49;94485.31;6145760;28;110231;-59
2023/12/21 02:52:51;;;;;;;22.80;20.83;;;;;;;21.24;29.57;94492.22;6161816;28;109553;-59
2023/12/21 02:55:56;;;;;;;23.43;21.43;;;;;;;21.23;29.51;94480.78;6153632;28;110210;-59
2023/12/21 02:58:59;;;;;;;23.80;21.63;;;;;;;21.23;29.46;94480.78;6147338;28;110117;-59
2023/12/21 03:02:02;;;;;;;23.17;21.13;;;;;;;21.23;29.46;94480.78;6144259;28;110070;-59
2023/12/21 03:05:06;;;;;;;23.57;21.50;;;;;;;21.24;29.61;94474.38;6156784;28;110026;-59
2023/12/21 03:08:09;;;;;;;23.67;21.57;;;;;;;21.24;29.65;94474.38;6148565;28;109292;-58
2023/12/21 03:11:13;;;;;;;24.33;22.03;;;;;;;21.26;29.34;94472.16;6152471;28;109248;-59
2023/12/21 03:14:17;;;;;;;24.10;21.90;;;;;;;21.29;29.50;94470.75;6161209;28;110413;-59
2023/12/21 03:17:20;;;;;;;22.40;20.40;;;;;;;21.26;29.77;94474.81;6144222;28;109059;-61
2023/12/21 03:20:23;;;;;;;22.70;20.80;;;;;;;21.23;29.95;94475.47;6162641;28;110104;-59
2023/12/21 03:23:27;;;;;;;23.57;21.47;;;;;;;21.24;29.77;94474.38;6152901;28;110018;-59
2023/12/21 03:26:31;;;;;;;23.13;21.03;;;;;;;21.22;30.12;94479.22;6162976;28;110107;-58
2023/12/21 03:29:34;;;;;;;21.57;19.70;;;;;;;21.26;29.81;94480.16;6146648;28;110153;-56
2023/12/21 03:32:38;;;;;;;22.17;20.27;;;;;;;21.25;29.60;94480.47;6160533;28;109286;-59
2023/12/21 03:35:42;;;;;;;22.53;20.43;;;;;;;21.22;29.92;94484.53;6150175;28;109841;-61
2023/12/21 03:38:45;;;;;;;22.20;20.20;;;;;;;21.24;29.82;94490.34;6154033;28;110351;-61
2023/12/21 03:41:50;;;;;;;20.83;19.03;;;;;;;21.25;29.78;94483.91;6146915;28;109255;-58
2023/12/21 03:44:53;;;;;;;22.00;20.00;;;;;;;21.36;29.81;94495.81;6154503;28;110328;-57
2023/12/21 03:47:56;;;;;;;21.60;19.70;;;;;;;21.38;29.87;94488.28;6154609;28;111907;-59
2023/12/21 03:50:59;;;;;;;23.73;21.53;;;;;;;21.43;30.45;94488.13;6153245;28;109305;-60
2023/12/21 03:54:02;;;;;;;23.90;21.57;;;;;;;21.46;30.08;94490.16;6150956;28;110274;-60
2023/12/21 03:57:06;;;;;;;24.03;21.50;;;;;;;21.44;30.13;94487.03;6147381;28;110126;-60
2023/12/21 04:00:10;;;;;;;22.70;20.60;;;;;;;21.43;30.88;94496.13;6159097;28;109285;-59
2023/12/21 04:03:13;;;;;;;20.40;18.80;;;;;;;21.36;31.17;94495.03;6149796;28;109517;-60
2023/12/21 04:06:16;;;;;;;19.03;17.33;;;;;;;21.33;31.28;94488.44;6157668;28;109423;-61
2023/12/21 04:09:19;;;;;;;20.17;18.30;;;;;;;21.39;31.24;94487.19;6140226;28;109209;-58
2023/12/21 04:12:24;;;;;;;21.30;19.17;;;;;;;21.42;31.41;94493.75;6155286;28;111181;-59
2023/12/21 04:15:27;;;;;;;19.97;18.17;;;;;;;21.37;31.71;94488.63;6158185;28;109039;-59
2023/12/21 04:18:30;;;;;;;19.20;17.50;;;;;;;21.33;31.83;94493.75;6157225;28;110069;-59
2023/12/21 04:21:33;;;;;;;18.70;16.97;;;;;;;21.35;32.04;94494.25;6153439;28;109113;-58
2023/12/21 04:24:36;;;;;;;18.50;16.60;;;;;;;21.41;31.67;94492.97;6150688;28;109418;-59
2023/12/21 04:27:41;;;;;;;18.20;16.40;;;;;;;21.36;32.23;94495.81;6155387;28;109079;-60
2023/12/21 04:30:44;;;;;;;18.17;16.37;;;;;;;21.37;31.73;94497.38;6134831;28;109905;-61
2023/12/21 04:33:49;;;;;;;16.03;14.47;;;;;;;21.66;31.93;94502.03;6161978;28;110027;-59
2023/12/21 04:36:53;;;;;;;16.00;14.50;;;;;;;21.79;31.51;94492.28;6165693;28;109230;-59
2023/12/21 04:39:56;;;;;;;16.70;15.10;;;;;;;21.84;31.67;94502.81;6156060;28;110514;-58
2023/12/21 04:43:00;;;;;;;17.60;14.10;;;;;;;21.68;32.25;94501.75;6147482;28;109137;-56
2023/12/21 04:46:05;;;;;;;14.43;13.07;;;;;;;21.56;32.31;94501.59;6160503;28;109102;-56
2023/12/21 04:49:08;;;;;;;13.87;12.47;;;;;;;21.49;32.04;94502.03;6154632;28;110389;-56
2023/12/21 04:52:11;;;;;;;15.33;13.27;;;;;;;21.49;32.24;94499.38;6154632;28;109247;-56
2023/12/21 04:55:16;;;;;;;14.10;12.90;;;;;;;21.52;32.13;94504.09;6149803;28;109196;-56
2023/12/21 04:58:21;;;;;;;14.27;12.70;;;;;;;21.49;32.12;94505.50;6162452;28;110244;-57
2023/12/21 05:01:24;;;;;;;13.50;11.80;;;;;;;21.48;32.16;94511.91;6161887;28;109064;-56
2023/12/21 05:04:27;;;;;;;15.43;13.27;;;;;;;21.48;32.02;94498.59;6152668;28;110046;-56
2023/12/21 05:07:30;;;;;;;13.97;12.43;;;;;;;21.49;31.87;94500.16;6160900;28;109063;-57
2023/12/21 05:10:33;;;;;;;13.80;12.30;;;;;;;21.48;32.34;94497.81;6161849;28;110253;-56
2023/12/21 05:13:38;;;;;;;13.50;11.37;;;;;;;21.48;31.96;94497.81;6160564;28;109097;-56
2023/12/21 05:16:41;;;;;;;11.80;10.70;;;;;;;21.47;31.96;94502.38;6135504;28;110958;-56
2023/12/21 05:19:45;;;;;;;12.37;11.23;;;;;;;21.45;31.74;94503.78;6137478;28;110096;-56
2023/12/21 05:22:49;;;;;;;11.10;10.10;;;;;;;21.44;32.25;94510.19;6160152;28;109020;-56
2023/12/21 05:25:53;;;;;;;11.13;10.13;;;;;;;21.42;32.16;94513.19;6161277;28;109012;-56
2023/12/21 05:28:57;;;;;;;11.97;10.87;;;;;;;21.37;32.36;94520.53;6151510;28;109937;-57
2023/12/21 05:32:00;;;;;;;12.13;10.87;;;;;;;21.33;32.15;94523.03;6160492;28;109644;-56
2023/12/21 05:35:05;;;;;;;10.53;9.60;;;;;;;21.31;32.12;94521.78;6161135;28;109111;-56
2023/12/21 05:38:08;;;;;;;11.97;10.27;;;;;;;21.29;32.10;94511.44;6132750;28;109623;-56
2023/12/21 05:41:11;;;;;;;10.63;9.53;;;;;;;21.27;32.19;94508.31;6139803;28;109410;-56
2023/12/21 05:44:15;;;;;;;11.23;10.20;;;;;;;21.26;32.41;94512.09;6160658;28;109063;-57
2023/12/21 05:47:19;;;;;;;10.50;9.20;;;;;;;21.25;32.12;94507.84;6160353;28;109151;-57
2023/12/21 05:50:22;;;;;;;10.43;9.43;;;;;;;21.23;32.01;94507.41;6150140;28;109201;-60
2023/12/21 05:53:25;;;;;;;10.50;9.60;;;;;;;21.24;32.06;94505.50;6161680;28;110171;-55
2023/12/21 05:56:28;;;;;;;9.53;8.63;;;;;;;21.23;31.95;94504.72;6161346;28;110954;-55
2023/12/21 05:59:32;;;;;;;9.40;8.50;;;;;;;21.20;32.15;94497.38;6161232;28;109214;-55
2023/12/21 06:02:35;;;;;;;9.50;8.60;;;;;;;21.27;32.13;94510.19;6149913;28;109064;-55
2023/12/21 06:05:38;;;;;;;9.90;8.90;;;;;;;21.25;31.77;94515.84;6160986;28;109103;-55
2023/12/21 06:08:41;;;;;;;10.23;9.33;;;;;;;21.23;31.94;94503.94;6161241;28;109169;-56
2023/12/21 06:11:44;;;;;;;9.77;8.90;;;;;;;21.20;31.96;94508.03;6161198;28;110120;-55
2023/12/21 06:14:53;;;;;;;9.03;8.23;;;;;;;21.19;31.57;94506.47;6152220;28;109320;-55
2023/12/21 06:17:56;;;;;;;8.80;8.00;;;;;;;21.19;31.43;94509.91;6160323;28;110070;-56
2023/12/21 06:20:59;;;;;;;9.30;8.40;;;;;;;21.18;31.54;94504.91;6160629;28;109198;-56
2023/12/21 06:24:03;;;;;;;9.57;8.67;;;;;;;21.18;31.84;94504.91;6150729;28;110691;-56
2023/12/21 06:27:06;;;;;;;8.50;7.60;;;;;;;21.18;31.59;94500.34;6160628;28;109828;-56
2023/12/21 06:30:11;;;;;;;8.47;7.77;;;;;;;21.21;31.51;94499.72;6160863;28;109233;-56
2023/12/21 06:33:14;;;;;;;9.40;8.50;;;;;;;21.23;31.37;94506.59;6160158;28;110122;-56
2023/12/21 06:36:17;;;;;;;7.93;7.23;;;;;;;21.20;31.49;94508.81;6149266;28;108972;-58
2023/12/21 06:39:20;;;;;;;8.90;8.00;;;;;;;21.20;31.23;94513.34;6160726;28;109098;-55
2023/12/21 06:42:23;;;;;;;7.73;7.03;;;;;;;21.19;31.45;94511.78;6160268;28;109094;-55
2023/12/21 06:45:28;;;;;;;8.70;7.90;;;;;;;21.19;31.65;94511.78;6159982;28;108936;-55
2023/12/21 06:48:31;;;;;;;7.50;6.80;;;;;;;21.20;31.45;94518.66;6149534;28;110507;-56
2023/12/21 06:51:34;;;;;;;7.67;6.97;;;;;;;21.20;31.62;94516.00;6160217;28;109056;-55
2023/12/21 06:54:37;;;;;;;7.23;6.63;;;;;;;21.19;31.43;94517.88;6160104;28;109111;-59
2023/12/21 06:57:40;;;;;;;7.70;6.90;;;;;;;21.27;31.17;94521.63;6155320;28;109557;-55
2023/12/21 07:00:44;;;;;;;7.47;6.80;;;;;;;21.59;30.93;94519.59;6154657;28;109110;-55
2023/12/21 07:03:47;;;;;;;7.53;6.83;;;;;;;22.00;29.99;94519.06;6160142;28;109104;-59
2023/12/21 07:06:51;;;;;;;7.70;7.00;;;;;;;22.19;30.13;94519.50;6160584;28;110101;-60
2023/12/21 07:09:54;;;;;;;7.57;6.90;;;;;;;22.34;29.73;94520.84;6149720;28;109637;-60
2023/12/21 07:12:57;;;;;;;7.20;6.60;;;;;;;22.27;29.76;94518.69;6160407;28;111126;-60
2023/12/21 07:16:02;;;;;;;6.83;6.23;;;;;;;22.36;30.17;94524.78;6159863;28;109236;-59
2023/12/21 07:19:06;;;;;;;7.47;6.80;;;;;;;22.51;29.71;94523.44;6159777;28;110091;-59
2023/12/21 07:22:09;;;;;;;7.13;6.53;;;;;;;22.49;29.51;94524.84;6149327;28;109057;-63
2023/12/21 07:25:12;;;;;;;6.70;6.20;;;;;;;22.50;29.63;94527.19;6160111;28;109021;-59
2023/12/21 07:28:16;;;;;;;7.03;6.33;;;;;;;22.20;29.87;94528.28;6159721;28;109537;-61
2023/12/21 07:31:20;;;;;;;6.77;6.20;;;;;;;22.04;30.20;94534.13;6157379;28;108848;-59
2023/12/21 07:34:24;;;;;;;6.90;6.30;;;;;;;21.97;30.32;94533.81;6152607;28;109678;-60
2023/12/21 07:37:27;;;;;;;7.03;6.30;;;;;;;21.95;30.42;94529.91;6161212;28;109841;-60
2023/12/21 07:40:30;;;;;;;6.53;5.93;;;;;;;21.94;30.18;94526.44;6163720;28;109057;-61
2023/12/21 07:43:33;;;;;;;5.40;5.00;;;;;;;21.93;30.27;94522.22;6153769;28;110034;-59
2023/12/21 07:46:38;;;;;;;6.10;5.60;;;;;;;21.90;30.22;94528.19;6162500;28;108950;-59
2023/12/21 07:49:41;;;;;;;5.97;5.47;;;;;;;21.88;30.21;94522.41;6162717;28;109117;-61
2023/12/21 07:52:44;;;;;;;6.77;6.07;;;;;;;21.88;30.28;94533.06;6163930;28;110144;-59
2023/12/21 07:55:47;;;;;;;6.40;5.80;;;;;;;21.85;30.30;94539.03;6152854;28;109048;-60
2023/12/21 07:58:50;;;;;;;6.17;5.67;;;;;;;21.83;30.57;94530.53;6163899;28;110170;-60
2023/12/21 08:01:55;;;;;;;6.20;5.70;;;;;;;21.85;30.18;94540.91;6163468;28;110150;-61
2023/12/21 08:04:58;;;;;;;6.73;6.13;;;;;;;21.83;30.52;94538.53;6163685;28;110151;-60
2023/12/21 08:08:01;;;;;;;5.80;5.30;;;;;;;21.80;30.43;94531.16;6153181;28;110198;-60
2023/12/21 08:11:05;;;;;;;6.33;5.73;;;;;;;21.78;30.53;94534.13;6163256;28;109384;-59
2023/12/21 08:14:08;;;;;;;5.70;5.20;;;;;;;21.76;30.14;94540.88;6142531;28;110073;-56
2023/12/21 08:17:13;;;;;;;5.80;5.30;;;;;;;21.76;30.23;94535.53;6158966;28;110054;-55
2023/12/21 08:20:16;;;;;;;5.90;5.30;;;;;;;21.74;30.70;94535.09;6156518;28;109129;-56
2023/12/21 08:23:19;;;;;;;6.57;5.97;;;;;;;21.73;30.36;94549.50;6162872;28;109642;-56
2023/12/21 08:26:22;;;;;;;6.10;5.50;;;;;;;21.72;30.47;94550.59;6162982;28;110370;-56
2023/12/21 08:29:25;;;;;;;6.47;5.87;;;;;;;21.72;30.34;94554.03;6152303;28;110090;-57
2023/12/21 08:32:30;;;;;;;5.70;5.20;;;;;;;21.72;30.56;94555.91;6161644;28;109160;-57
2023/12/21 08:35:33;;;;;;;5.63;5.10;;;;;;;21.72;30.26;94550.59;6162730;28;110203;-59
2023/12/21 08:38:36;;;;;;;6.30;5.70;;;;;;;21.68;30.29;94550.44;6162416;28;109286;-55
2023/12/21 08:41:42;;;;;;;5.90;5.40;;;;;;;21.69;30.26;94548.56;6152812;28;109256;-55
2023/12/21 08:44:45;;;;;;;5.13;4.63;;;;;;;21.68;30.24;94533.69;6162312;28;110698;-56
2023/12/21 08:47:49;;;;;;;5.63;5.03;;;;;;;21.68;30.38;94528.38;6161831;28;109367;-56
2023/12/21 08:50:52;;;;;;;5.30;4.80;;;;;;;21.65;30.38;94529.75;6157937;28;108941;-57
2023/12/21 08:53:56;;;;;;;5.73;5.23;;;;;;;21.64;29.97;94538.84;6154696;28;110044;-56
2023/12/21 08:56:59;;;;;;;5.30;4.83;;;;;;;21.62;30.38;94530.38;6162478;28;110011;-56
2023/12/21 09:00:04;;;;;;;5.57;4.80;;;;;;;21.61;29.90;94520.06;6161803;28;109060;-56
2023/12/21 09:03:09;;;;;;;5.13;4.73;;;;;;;21.62;30.29;94518.97;6151140;28;109252;-56
2023/12/21 09:06:13;;;;;;;9.00;4.60;;;;;;;21.62;30.29;94521.63;6161276;28;108959;-56
2023/12/21 09:09:16;;;;;;;5.47;4.97;;;;;;;21.61;29.94;94515.50;6162131;28;110009;-55
2023/12/21 09:12:19;;;;;;;5.27;4.77;;;;;;;21.61;30.26;94512.06;6162001;28;109303;-56
2023/12/21 09:15:23;;;;;;;5.30;4.80;;;;;;;21.63;30.39;94504.53;6151174;28;109284;-56
2023/12/21 09:18:28;;;;;;;4.70;4.30;;;;;;;21.64;30.09;94500.78;6162072;28;109334;-56
2023/12/21 09:21:31;;;;;;;4.97;4.47;;;;;;;21.66;30.24;94499.38;6161117;28;109112;-57
2023/12/21 09:24:34;;;;;;;4.87;4.40;;;;;;;21.68;30.06;94491.09;6161949;28;109087;-55
2023/12/21 09:27:37;;;;;;;4.57;4.17;;;;;;;21.69;30.12;94482.78;6151646;28;109124;-55
2023/12/21 09:30:40;;;;;;;5.03;4.10;;;;;;;21.71;30.14;94479.78;6161720;28;109291;-55
2023/12/21 09:33:45;;;;;;;4.27;3.87;;;;;;;21.71;30.00;94475.25;6161603;28;109481;-55
2023/12/21 09:36:48;;;;;;;4.17;3.87;;;;;;;21.73;30.01;94473.06;6156230;28;108864;-56
2023/12/21 09:39:51;;;;;;;5.20;4.70;;;;;;;21.74;30.03;94477.28;6156437;28;110103;-60
2023/12/21 09:42:57;;;;;;;4.43;4.03;;;;;;;21.75;30.14;94475.41;6161459;28;109233;-56
2023/12/21 09:46:14;;;;;;;4.60;4.20;;;;;;;21.76;29.75;94463.63;6161312;28;109078;-60
2023/12/21 09:49:20;;;;;;;3.90;3.60;;;;;;;21.76;29.76;94455.66;6150501;28;109004;-56
2023/12/21 09:52:25;;;;;;;4.40;4.00;;;;;;;21.75;29.99;94457.53;6160248;28;109064;-55
2023/12/21 09:55:30;;;;;;;4.63;4.13;;;;;;;21.76;30.20;94453.00;6160885;28;109424;-56
2023/12/21 09:58:36;;;;;;;5.00;4.50;;;;;;;21.75;29.85;94446.88;6161298;28;110283;-55
2023/12/21 10:01:39;;;;;;;4.33;3.93;;;;;;;21.77;29.64;94435.91;6149684;28;109101;-56
2023/12/21 10:04:48;;;;;;;4.40;4.00;;;;;;;21.76;29.95;94445.00;6161140;28;110375;-56
2023/12/21 10:07:51;;;;;;;4.67;4.17;;;;;;;21.77;30.16;94423.38;6161119;28;110038;-58
2023/12/21 10:10:54;;;;;;;3.97;3.60;;;;;;;21.77;30.01;94417.25;6155944;28;110148;-55
2023/12/21 10:14:01;;;;;;;4.53;4.13;;;;;;;21.77;30.11;94409.28;6155666;28;110056;-55
2023/12/21 10:17:09;;;;;;;4.33;3.93;;;;;;;21.78;29.99;94403.63;6138295;28;108952;-56
2023/12/21 10:20:15;;;;;;;3.97;3.63;;;;;;;21.78;30.04;94394.84;6160979;28;110204;-55
2023/12/21 10:23:19;;;;;;;4.40;4.00;;;;;;;21.78;30.07;94392.19;6150661;28;110200;-55
2023/12/21 10:26:22;;;;;;;4.00;3.60;;;;;;;21.76;30.14;94391.72;6160155;28;109172;-56
2023/12/21 10:29:25;;;;;;;4.50;4.10;;;;;;;21.74;30.38;94391.28;6160160;28;109136;-55
2023/12/21 10:32:29;;;;;;;4.87;4.40;;;;;;;21.73;30.11;94387.06;6160285;28;110097;-56
2023/12/21 10:35:33;;;;;;;3.77;3.40;;;;;;;21.73;30.10;94374.53;6150003;28;109321;-62
2023/12/21 10:38:37;;;;;;;4.60;4.10;;;;;;;21.73;29.83;94371.06;6160221;28;109248;-62
2023/12/21 10:41:43;;;;;;;4.63;4.10;;;;;;;21.71;29.64;94366.06;6160638;28;109573;-60
2023/12/21 10:44:46;;;;;;;4.30;3.90;;;;;;;21.67;29.61;94348.38;6155674;28;109170;-60
2023/12/21 10:47:53;;;;;;;4.63;4.13;;;;;;;21.70;30.16;94345.09;6149273;28;109433;-62
2023/12/21 10:50:59;;;;;;;4.17;3.77;;;;;;;21.71;30.39;94351.97;6136533;28;108969;-60
2023/12/21 10:54:03;;;;;;;4.33;3.93;;;;;;;21.73;30.46;94352.44;6150442;28;110046;-60
2023/12/21 10:57:07;;;;;;;4.00;3.70;;;;;;;21.73;30.03;94336.47;6148973;28;109654;-60
2023/12/21 11:00:13;;;;;;;4.47;4.07;;;;;;;21.73;29.87;94323.16;6160471;28;109276;-59
2023/12/21 11:03:17;;;;;;;4.17;3.80;;;;;;;21.70;30.03;94310.47;6160461;28;109499;-60
2023/12/21 11:06:22;;;;;;;4.17;3.77;;;;;;;21.71;30.37;94312.81;6160530;28;109137;-60
2023/12/21 11:09:28;;;;;;;4.20;3.70;;;;;;;21.73;29.76;94304.50;6149882;28;110016;-60
2023/12/21 11:12:31;;;;;;;4.50;4.10;;;;;;;21.73;30.27;94304.50;6161852;28;110075;-58
2023/12/21 11:15:35;;;;;;;4.53;4.13;;;;;;;21.73;30.22;94301.84;6164316;28;109448;-59
2023/12/21 11:18:39;;;;;;;4.63;4.20;;;;;;;21.72;29.76;94300.28;6160919;28;110213;-56
2023/12/21 11:21:44;;;;;;;4.30;3.90;;;;;;;21.72;29.96;94287.75;6158873;28;110245;-60
2023/12/21 11:24:48;;;;;;;4.20;3.83;;;;;;;21.64;30.36;94282.44;6163405;28;109889;-64
2023/12/21 11:27:52;;;;;;;4.30;3.80;;;;;;;21.70;29.89;94287.28;6164304;28;110113;-60
2023/12/21 11:30:55;;;;;;;4.50;4.07;;;;;;;21.71;29.72;94280.06;6153210;28;109258;-61
2023/12/21 11:34:09;;;;;;;4.27;3.87;;;;;;;21.72;30.31;94268.31;6163645;28;108943;-62
2023/12/21 11:37:24;;;;;;;4.40;4.00;;;;;;;21.68;29.91;94259.44;6163716;28;109041;-59
2023/12/21 11:40:27;;;;;;;4.43;4.03;;;;;;;21.71;29.76;94269.44;6163709;28;109028;-61
2023/12/21 11:43:31;;;;;;;4.80;3.90;;;;;;;21.72;30.03;94271.00;6152876;28;109063;-60
2023/12/21 11:46:35;;;;;;;4.83;4.43;;;;;;;21.70;30.06;94270.53;6163875;28;109715;-56
2023/12/21 11:49:39;;;;;;;4.20;3.80;;;;;;;21.69;30.09;94253.78;6163676;28;110182;-56
2023/12/21 11:52:44;;;;;;;4.30;3.90;;;;;;;21.69;29.87;94251.13;6160164;28;108983;-57
2023/12/21 11:55:51;;;;;;;4.53;4.13;;;;;;;21.70;29.85;94254.56;6157004;28;109179;-56
2023/12/21 11:58:55;;;;;;;4.30;3.83;;;;;;;21.69;30.20;94253.00;6163285;28;109172;-56
2023/12/21 12:01:59;;;;;;;4.60;4.00;;;;;;;21.68;29.83;94251.44;6163663;28;110032;-57
2023/12/21 12:05:03;;;;;;;4.47;3.93;;;;;;;21.66;30.31;94238.41;6153540;28;110073;-57
2023/12/21 12:08:08;;;;;;;4.23;3.87;;;;;;;21.64;30.07;94229.97;6162961;28;109123;-56
2023/12/21 12:11:13;;;;;;;4.27;3.80;;;;;;;21.64;30.07;94223.88;6163115;28;109129;-63
2023/12/21 12:14:16;;;;;;;4.67;3.97;;;;;;;21.64;29.96;94221.22;6162359;28;110097;-55
2023/12/21 12:17:19;;;;;;;4.20;3.80;;;;;;;21.62;30.26;94210.88;6152927;28;110052;-56
2023/12/21 12:20:22;;;;;;;4.03;3.60;;;;;;;21.61;30.07;94208.53;6163091;28;110091;-57
2023/12/21 12:23:27;;;;;;;3.47;3.17;;;;;;;21.58;30.21;94207.31;6162811;28;109015;-57
2023/12/21 12:26:31;;;;;;;3.73;3.43;;;;;;;21.58;30.29;94201.22;6162037;28;109059;-57
2023/12/21 12:29:34;;;;;;;4.10;3.70;;;;;;;21.58;29.77;94202.00;6151371;28;109236;-57
2023/12/21 12:32:37;;;;;;;4.10;3.70;;;;;;;21.56;30.08;94206.84;6162207;28;109290;-55
2023/12/21 12:35:42;;;;;;;3.90;3.40;;;;;;;21.58;30.17;94204.66;6162410;28;109009;-57
2023/12/21 12:38:48;;;;;;;3.47;3.17;;;;;;;21.59;30.36;94194.78;6155815;28;110235;-57
2023/12/21 12:41:55;;;;;;;3.43;3.13;;;;;;;21.59;29.91;94190.25;6161628;28;109368;-55
2023/12/21 12:45:00;;;;;;;3.90;3.50;;;;;;;21.60;29.93;94194.47;6162149;28;109461;-57
2023/12/21 12:48:04;;;;;;;3.70;3.40;;;;;;;21.57;30.14;94181.78;6163060;28;109683;-57
2023/12/21 12:51:11;;;;;;;3.77;3.40;;;;;;;21.60;29.84;94175.81;6151873;28;110181;-57
2023/12/21 12:54:16;;;;;;;4.17;3.00;;;;;;;21.60;30.39;94173.16;6162501;28;109404;-57
2023/12/21 12:57:20;;;;;;;3.90;3.50;;;;;;;21.61;29.95;94176.59;6161536;28;109222;-56
2023/12/21 13:00:23;;;;;;;3.80;3.50;;;;;;;21.61;29.92;94181.94;6162264;28;110104;-56
2023/12/21 13:03:26;;;;;;;3.23;2.80;;;;;;;21.66;29.73;94185.16;6151112;28;109009;-57
2023/12/21 13:06:30;;;;;;;3.23;2.93;;;;;;;21.67;29.96;94175.28;6161745;28;109122;-56
2023/12/21 13:09:35;;;;;;;4.53;3.70;;;;;;;21.70;30.06;94177.34;6161895;28;109470;-56
2023/12/21 13:12:38;;;;;;;3.10;2.80;;;;;;;21.71;29.97;94170.91;6156480;28;109295;-56
2023/12/21 13:15:42;;;;;;;4.20;2.97;;;;;;;21.71;30.29;94169.03;6156757;28;110157;-56
2023/12/21 13:18:45;;;;;;;3.77;3.10;;;;;;;21.71;30.25;94176.22;6162186;28;109099;-56
2023/12/21 13:21:49;;;;;;;3.70;3.07;;;;;;;21.71;30.02;94176.22;6162131;28;110218;-56
2023/12/21 13:24:54;;;;;;;4.43;3.10;;;;;;;21.72;30.42;94175.91;6150759;28;108866;-58
2023/12/21 13:27:57;;;;;;;3.67;3.20;;;;;;;21.73;30.11;94166.03;6161184;28;110396;-57
2023/12/21 13:31:17;;;;;;;3.03;2.70;;;;;;;21.71;30.33;94161.03;6161429;28;109013;-58
2023/12/21 13:34:20;;;;;;;4.17;3.10;;;;;;;21.71;30.62;94158.38;6161165;28;110471;-56
2023/12/21 13:37:23;;;;;;;3.67;3.17;;;;;;;21.72;30.63;94148.50;6151150;28;110249;-57
2023/12/21 13:40:32;;;;;;;3.10;2.80;;;;;;;21.74;30.54;94154.28;6161416;28;109257;-56
2023/12/21 13:43:35;;;;;;;9.77;3.23;;;;;;;21.74;30.55;94154.28;6161165;28;108939;-56
2023/12/21 13:46:38;;;;;;;3.30;3.00;;;;;;;21.73;30.46;94148.16;6156300;28;110414;-56
2023/12/21 13:49:41;;;;;;;3.40;2.90;;;;;;;21.75;30.49;94150.50;6156617;28;110228;-57
2023/12/21 13:52:45;;;;;;;3.63;3.33;;;;;;;21.73;30.70;94147.38;6161744;28;110161;-56
2023/12/21 13:55:50;;;;;;;4.60;3.50;;;;;;;21.74;30.28;94138.28;6161241;28;108972;-58
2023/12/21 13:58:53;;;;;;;4.90;3.10;;;;;;;21.76;30.64;94144.06;6150307;28;110488;-60
2023/12/21 14:01:56;;;;;;;4.70;3.30;;;;;;;21.79;30.86;94135.44;6161011;28;109036;-61
2023/12/21 14:04:59;;;;;;;4.40;3.07;;;;;;;21.75;31.21;94139.84;6161156;28;110044;-60
2023/12/21 14:08:02;;;;;;;3.80;2.73;;;;;;;21.73;31.15;94137.53;6161469;28;109983;-60